Time,TemperatureF,DewpointF,PressureIn,WindDirection,WindDirectionDegrees,WindSpeedMPH,WindSpeedGustMPH,Humidity,HourlyPrecipIn,Conditions,Clouds,dailyrainin,SoftwareType,DateUTC
2013-05-31 00:11:00,79.7,52.5,29.62,WNW,292,7.8,-999.0,39,-99.99,,,0.00,Acu-Link.com,2013-05-31 07:11:00,
2013-05-31 00:26:00,78.8,53.7,29.63,WNW,292,6.8,-999.0,42,-99.99,,,0.00,Acu-Link.com,2013-05-31 07:26:00,
2013-05-31 00:41:00,78.3,53.3,29.63,West,270,5.8,-999.0,42,-99.99,,,0.00,Acu-Link.com,2013-05-31 07:41:00,
2013-05-31 00:56:00,78.3,53.3,29.63,North,0,7.3,-999.0,42,-99.99,,,0.00,Acu-Link.com,2013-05-31 07:56:00,
2013-05-31 01:12:00,77.7,52.8,29.63,SW,225,7.8,-999.0,42,-99.99,,,0.00,Acu-Link.com,2013-05-31 08:12:00,
2013-05-31 01:30:00,77.7,52.8,29.64,West,270,6.3,-999.0,42,-99.99,,,0.00,Acu-Link.com,2013-05-31 08:30:00,
2013-05-31 01:45:00,77.4,52.5,29.64,NW,315,5.8,-999.0,42,-99.99,,,0.00,Acu-Link.com,2013-05-31 08:45:00,
2013-05-31 02:00:00,76.8,52.6,29.63,WNW,292,8.9,-999.0,43,-99.99,,,0.00,Acu-Link.com,2013-05-31 09:00:00,
2013-05-31 02:15:00,76.8,52.6,29.63,West,270,4.2,-999.0,43,-99.99,,,0.00,Acu-Link.com,2013-05-31 09:15:00,
2013-05-31 02:30:00,76.6,53.0,29.63,SW,225,5.3,-999.0,44,-99.99,,,0.00,Acu-Link.com,2013-05-31 09:30:00,
2013-05-31 02:45:00,77.0,52.8,29.63,ESE,112,6.8,-999.0,43,-99.99,,,0.00,Acu-Link.com,2013-05-31 09:45:00,
2013-05-31 03:00:00,76.8,52.6,29.63,West,270,5.8,-999.0,43,-99.99,,,0.00,Acu-Link.com,2013-05-31 10:00:00,
2013-05-31 03:16:00,76.6,52.4,29.63,SW,225,5.3,-999.0,43,-99.99,,,0.00,Acu-Link.com,2013-05-31 10:16:00,
2013-05-31 03:31:00,76.8,52.6,29.63,SSW,202,6.3,-999.0,43,-99.99,,,0.00,Acu-Link.com,2013-05-31 10:31:00,
2013-05-31 03:46:00,76.6,52.4,29.63,West,270,5.3,-999.0,43,-99.99,,,0.00,Acu-Link.com,2013-05-31 10:46:00,
2013-05-31 04:01:00,76.3,52.1,29.63,West,270,0.0,-999.0,43,-99.99,,,0.00,Acu-Link.com,2013-05-31 11:01:00,
2013-05-31 04:16:00,75.0,52.8,29.64,SW,225,1.1,-999.0,46,-99.99,,,0.00,Acu-Link.com,2013-05-31 11:16:00,
2013-05-31 04:31:00,74.3,52.7,29.64,West,270,2.7,-999.0,47,-99.99,,,0.00,Acu-Link.com,2013-05-31 11:31:00,
2013-05-31 04:47:00,74.8,52.0,29.64,NNE,22,4.7,-999.0,45,-99.99,,,0.00,Acu-Link.com,2013-05-31 11:47:00,
2013-05-31 05:02:00,74.3,52.2,29.65,West,270,4.7,-999.0,46,-99.99,,,0.00,Acu-Link.com,2013-05-31 12:02:00,
2013-05-31 05:17:00,73.8,52.3,29.66,West,270,5.3,-999.0,47,-99.99,,,0.00,Acu-Link.com,2013-05-31 12:17:00,
2013-05-31 05:32:00,73.4,53.1,29.66,West,270,4.7,-999.0,49,-99.99,,,0.00,Acu-Link.com,2013-05-31 12:32:00,
2013-05-31 05:47:00,72.7,53.5,29.67,SW,225,5.8,-999.0,51,-99.99,,,0.00,Acu-Link.com,2013-05-31 12:47:00,
2013-05-31 06:02:00,72.9,53.7,29.67,WSW,247,3.7,-999.0,51,-99.99,,,0.00,Acu-Link.com,2013-05-31 13:02:00,
2013-05-31 06:17:00,73.6,53.2,29.68,WSW,247,4.7,-999.0,49,-99.99,,,0.00,Acu-Link.com,2013-05-31 13:17:00,
2013-05-31 06:32:00,74.1,53.7,29.68,North,0,3.7,-999.0,49,-99.99,,,0.00,Acu-Link.com,2013-05-31 13:32:00,
2013-05-31 06:48:00,74.1,53.7,29.69,WNW,292,5.3,-999.0,49,-99.99,,,0.00,Acu-Link.com,2013-05-31 13:48:00,
2013-05-31 07:03:00,75.9,54.2,29.69,West,270,5.8,-999.0,47,-99.99,,,0.00,Acu-Link.com,2013-05-31 14:03:00,
2013-05-31 07:18:00,77.5,54.5,29.70,NNW,337,3.7,-999.0,45,-99.99,,,0.00,Acu-Link.com,2013-05-31 14:18:00,
2013-05-31 07:33:00,79.3,55.5,29.70,West,270,3.2,-999.0,44,-99.99,,,0.00,Acu-Link.com,2013-05-31 14:33:00,
2013-05-31 07:48:00,81.3,54.6,29.70,WNW,292,3.2,-999.0,40,-99.99,,,0.00,Acu-Link.com,2013-05-31 14:48:00,
2013-05-31 08:04:00,83.5,55.2,29.70,NW,315,1.1,-999.0,38,-99.99,,,0.00,Acu-Link.com,2013-05-31 15:04:00,
2013-05-31 08:19:00,84.7,55.5,29.71,South,180,2.2,-999.0,37,-99.99,,,0.00,Acu-Link.com,2013-05-31 15:19:00,
2013-05-31 08:34:00,87.8,56.7,29.71,SW,225,1.1,-999.0,35,-99.99,,,0.00,Acu-Link.com,2013-05-31 15:34:00,
2013-05-31 08:50:00,87.1,55.3,29.69,SSW,202,2.2,-999.0,34,-99.99,,,0.00,Acu-Link.com,2013-05-31 15:50:00,
2013-05-31 09:05:00,89.6,56.6,29.70,South,180,3.2,-999.0,33,-99.99,,,0.00,Acu-Link.com,2013-05-31 16:05:00,
2013-05-31 09:20:00,85.6,56.3,29.69,ESE,112,1.7,-999.0,37,-99.99,,,0.00,Acu-Link.com,2013-05-31 16:20:00,
2013-05-31 09:35:00,85.8,56.5,29.70,South,180,1.7,-999.0,37,-99.99,,,0.00,Acu-Link.com,2013-05-31 16:35:00,
2013-05-31 09:51:00,86.7,55.7,29.70,SSW,202,2.7,-999.0,35,-99.99,,,0.00,Acu-Link.com,2013-05-31 16:51:00,
2013-05-31 10:06:00,88.3,57.1,29.69,South,180,1.1,-999.0,35,-99.99,,,0.00,Acu-Link.com,2013-05-31 17:06:00,
2013-05-31 10:21:00,89.1,56.2,29.69,SW,225,1.1,-999.0,33,-99.99,,,0.00,Acu-Link.com,2013-05-31 17:21:00,
2013-05-31 10:37:00,89.6,55.8,29.69,South,180,3.2,-999.0,32,-99.99,,,0.00,Acu-Link.com,2013-05-31 17:37:00,
2013-05-31 10:52:00,90.7,55.9,29.69,SSE,157,2.2,-999.0,31,-99.99,,,0.00,Acu-Link.com,2013-05-31 17:52:00,
2013-05-31 11:07:00,91.6,56.6,29.68,SSW,202,2.7,-999.0,31,-99.99,,,0.00,Acu-Link.com,2013-05-31 18:07:00,
2013-05-31 11:22:00,91.9,56.0,29.67,SSE,157,1.1,-999.0,30,-99.99,,,0.00,Acu-Link.com,2013-05-31 18:22:00,
2013-05-31 11:37:00,94.1,57.9,29.67,SSW,202,3.2,-999.0,30,-99.99,,,0.00,Acu-Link.com,2013-05-31 18:37:00,
2013-05-31 12:08:00,95.7,58.3,29.66,SSE,157,1.7,-999.0,29,-99.99,,,0.00,Acu-Link.com,2013-05-31 19:08:00,
2013-05-31 12:23:00,97.5,55.7,29.66,South,180,5.3,-999.0,25,-99.99,,,0.00,Acu-Link.com,2013-05-31 19:23:00,
2013-05-31 12:38:00,97.9,56.0,29.65,WSW,247,2.2,-999.0,25,-99.99,,,0.00,Acu-Link.com,2013-05-31 19:38:00,
2013-05-31 12:53:00,99.0,53.4,29.65,South,180,1.7,-999.0,22,-99.99,,,0.00,Acu-Link.com,2013-05-31 19:53:00,
2013-05-31 13:08:00,99.5,52.6,29.64,SE,135,3.2,-999.0,21,-99.99,,,0.00,Acu-Link.com,2013-05-31 20:08:00,
2013-05-31 13:24:00,100.9,52.4,29.63,SSW,202,1.7,-999.0,20,-99.99,,,0.00,Acu-Link.com,2013-05-31 20:24:00,
2013-05-31 13:39:00,101.3,51.3,29.62,SW,225,2.7,-999.0,19,-99.99,,,0.00,Acu-Link.com,2013-05-31 20:39:00,
2013-05-31 13:54:00,101.3,45.0,29.62,SSE,157,3.7,-999.0,15,-99.99,,,0.00,Acu-Link.com,2013-05-31 20:54:00,
2013-05-31 14:09:00,102.7,46.1,29.61,South,180,4.2,-999.0,15,-99.99,,,0.00,Acu-Link.com,2013-05-31 21:09:00,
2013-05-31 14:24:00,102.7,44.3,29.60,NNW,337,1.1,-999.0,14,-99.99,,,0.00,Acu-Link.com,2013-05-31 21:24:00,
2013-05-31 14:39:00,104.0,41.3,29.59,SSE,157,3.2,-999.0,12,-99.99,,,0.00,Acu-Link.com,2013-05-31 21:39:00,
2013-05-31 15:10:00,104.4,36.9,29.58,ESE,112,1.1,-999.0,10,-99.99,,,0.00,Acu-Link.com,2013-05-31 22:10:00,
2013-05-31 15:25:00,103.8,41.1,29.57,South,180,3.7,-999.0,12,-99.99,,,0.00,Acu-Link.com,2013-05-31 22:25:00,
2013-05-31 15:40:00,106.0,40.6,29.58,ESE,112,2.7,-999.0,11,-99.99,,,0.00,Acu-Link.com,2013-05-31 22:40:00,
2013-05-31 15:56:00,104.5,43.8,29.56,ESE,112,3.7,-999.0,13,-99.99,,,0.00,Acu-Link.com,2013-05-31 22:56:00,
2013-05-31 16:11:00,104.4,41.6,29.56,West,270,3.2,-999.0,12,-99.99,,,0.00,Acu-Link.com,2013-05-31 23:11:00,
2013-05-31 16:26:00,104.2,41.5,29.55,SSW,202,1.7,-999.0,12,-99.99,,,0.00,Acu-Link.com,2013-05-31 23:26:00,
2013-05-31 16:41:00,102.9,44.5,29.56,SE,135,0.0,-999.0,14,-99.99,,,0.00,Acu-Link.com,2013-05-31 23:41:00,
2013-05-31 16:57:00,103.5,43.0,29.55,ESE,112,1.1,-999.0,13,-99.99,,,0.00,Acu-Link.com,2013-05-31 23:57:00,
2013-05-31 17:12:00,103.8,43.2,29.55,SW,225,2.2,-999.0,13,-99.99,,,0.00,Acu-Link.com,2013-06-01 00:12:00,
2013-05-31 17:27:00,104.7,43.9,29.55,East,90,3.7,-999.0,13,-99.99,,,0.00,Acu-Link.com,2013-06-01 00:27:00,
2013-05-31 17:43:00,106.3,43.1,29.55,ESE,112,1.1,-999.0,12,-99.99,,,0.00,Acu-Link.com,2013-06-01 00:43:00,
2013-05-31 17:58:00,108.1,42.2,29.55,SE,135,3.2,-999.0,11,-99.99,,,0.00,Acu-Link.com,2013-06-01 00:58:00,
2013-05-31 18:13:00,104.2,47.3,29.56,SSE,157,2.2,-999.0,15,-99.99,,,0.00,Acu-Link.com,2013-06-01 01:13:00,
2013-05-31 18:28:00,102.4,47.6,29.56,SW,225,1.7,-999.0,16,-99.99,,,0.00,Acu-Link.com,2013-06-01 01:28:00,
2013-05-31 18:43:00,104.4,43.7,29.56,WSW,247,2.2,-999.0,13,-99.99,,,0.00,Acu-Link.com,2013-06-01 01:43:00,
2013-05-31 18:59:00,102.2,43.9,29.56,SW,225,2.7,-999.0,14,-99.99,,,0.00,Acu-Link.com,2013-06-01 01:59:00,
2013-05-31 19:14:00,100.9,44.7,29.57,SSW,202,2.2,-999.0,15,-99.99,,,0.00,Acu-Link.com,2013-06-01 02:14:00,
2013-05-31 19:29:00,97.9,45.6,29.57,SSW,202,1.1,-999.0,17,-99.99,,,0.00,Acu-Link.com,2013-06-01 02:29:00,
2013-05-31 19:44:00,95.4,46.6,29.59,SSW,202,1.7,-999.0,19,-99.99,,,0.00,Acu-Link.com,2013-06-01 02:44:00,
2013-05-31 20:00:00,93.9,48.0,29.59,South,180,0.0,-999.0,21,-99.99,,,0.00,Acu-Link.com,2013-06-01 03:00:00,
2013-05-31 20:15:00,93.6,49.0,29.59,SW,225,0.0,-999.0,22,-99.99,,,0.00,Acu-Link.com,2013-06-01 03:15:00,
2013-05-31 20:30:00,91.4,49.5,29.59,NNE,22,2.2,-999.0,24,-99.99,,,0.00,Acu-Link.com,2013-06-01 03:30:00,
2013-05-31 20:45:00,90.9,52.3,29.60,SW,225,3.7,-999.0,27,-99.99,,,0.00,Acu-Link.com,2013-06-01 03:45:00,
2013-05-31 21:01:00,90.3,52.7,29.60,SW,225,2.7,-999.0,28,-99.99,,,0.00,Acu-Link.com,2013-06-01 04:01:00,
2013-05-31 21:16:00,89.6,53.1,29.61,WSW,247,5.8,-999.0,29,-99.99,,,0.00,Acu-Link.com,2013-06-01 04:16:00,
2013-05-31 21:31:00,88.9,53.4,29.61,North,0,4.7,-999.0,30,-99.99,,,0.00,Acu-Link.com,2013-06-01 04:31:00,
2013-05-31 21:46:00,88.2,53.7,29.61,NE,45,5.3,-999.0,31,-99.99,,,0.00,Acu-Link.com,2013-06-01 04:46:00,
2013-05-31 22:01:00,87.6,54.1,29.63,WNW,292,7.3,-999.0,32,-99.99,,,0.00,Acu-Link.com,2013-06-01 05:01:00,
2013-05-31 22:16:00,86.7,54.1,29.62,WNW,292,5.3,-999.0,33,-99.99,,,0.00,Acu-Link.com,2013-06-01 05:16:00,
2013-05-31 22:31:00,85.8,55.0,29.62,WNW,292,5.3,-999.0,35,-99.99,,,0.00,Acu-Link.com,2013-06-01 05:31:00,
2013-05-31 22:47:00,85.1,55.1,29.63,NW,315,4.7,-999.0,36,-99.99,,,0.00,Acu-Link.com,2013-06-01 05:47:00,
2013-05-31 23:02:00,84.6,55.4,29.63,West,270,4.7,-999.0,37,-99.99,,,0.00,Acu-Link.com,2013-06-01 06:02:00,
2013-05-31 23:17:00,84.2,55.1,29.63,WNW,292,6.3,-999.0,37,-99.99,,,0.00,Acu-Link.com,2013-06-01 06:17:00,
2013-05-31 23:32:00,83.7,55.4,29.63,West,270,8.3,-999.0,38,-99.99,,,0.00,Acu-Link.com,2013-06-01 06:32:00,
2013-05-31 23:47:00,83.3,55.0,29.63,NNW,337,4.7,-999.0,38,-99.99,,,0.00,Acu-Link.com,2013-06-01 06:47:00,